createdAt,value
2022-08-22T00:01:18.030Z,19.72
2022-08-22T00:02:45.175Z,21.33
2022-08-22T00:02:52.693Z,21.52
2022-08-22T00:02:56.161Z,21.64
2022-08-22T00:02:59.525Z,22.81
2022-08-22T00:03:11.562Z,19.97
2022-08-22T00:04:33.311Z,19.56
2022-08-22T00:07:08.193Z,19.68
2022-08-22T00:10:21.003Z,19.86
2022-08-22T00:13:02.389Z,19.80
2022-08-22T00:15:45.228Z,19.57
2022-08-22T00:18:32.025Z,19.79
2022-08-22T00:21:25.325Z,19.70
2022-08-22T00:24:10.939Z,19.79
2022-08-22T00:26:49.391Z,19.97
2022-08-22T00:29:57.460Z,19.92
2022-08-22T00:32:51.046Z,19.87
2022-08-22T00:35:39.604Z,20.04
2022-08-22T00:38:17.714Z,19.74
2022-08-22T00:41:18.547Z,19.85
2022-08-22T00:43:57.579Z,19.61
2022-08-22T00:46:47.567Z,19.73
2022-08-22T00:49:18.625Z,19.69
2022-08-22T00:52:19.330Z,19.83
2022-08-22T00:54:59.347Z,19.91
2022-08-22T00:57:30.397Z,19.66
2022-08-22T01:00:12.877Z,19.86
2022-08-22T01:03:13.347Z,19.75
2022-08-22T01:06:04.559Z,19.63
2022-08-22T01:08:54.102Z,19.52
2022-08-22T01:11:27.515Z,19.53
2022-08-22T01:14:13.128Z,19.64
2022-08-22T01:17:09.336Z,19.52
2022-08-22T01:20:15.346Z,19.68
2022-08-22T01:22:49.557Z,19.66
2022-08-22T01:25:36.257Z,19.60
2022-08-22T01:28:42.022Z,19.62
2022-08-22T01:31:35.973Z,19.62
2022-08-22T01:34:32.054Z,19.62
2022-08-22T01:37:07.793Z,19.62
2022-08-22T01:40:05.587Z,19.60
2022-08-22T01:43:09.382Z,19.42
2022-08-22T01:45:53.645Z,19.36
2022-08-22T01:48:46.398Z,18.66
2022-08-22T01:51:18.984Z,19.07
2022-08-22T01:54:28.491Z,19.30
2022-08-22T01:57:01.484Z,19.35
2022-08-22T01:59:34.742Z,19.47
2022-08-22T02:02:32.400Z,19.37
2022-08-22T02:05:09.772Z,19.56
2022-08-22T02:07:46.546Z,19.63
2022-08-22T02:10:26.852Z,19.72
2022-08-22T02:13:18.945Z,19.66
2022-08-22T02:15:50.586Z,19.72
2022-08-22T02:18:26.163Z,19.70
2022-08-22T02:20:57.435Z,19.71
2022-08-22T02:23:44.576Z,19.65
2022-08-22T02:26:22.518Z,19.62
2022-08-22T02:29:17.936Z,19.52
2022-08-22T02:32:02.800Z,19.52
2022-08-22T02:34:37.414Z,19.46
2022-08-22T02:37:49.255Z,19.41
2022-08-22T02:40:23.328Z,19.45
2022-08-22T02:43:09.932Z,19.23
2022-08-22T02:45:48.607Z,19.36
2022-08-22T02:48:19.891Z,19.28
2022-08-22T02:50:59.096Z,19.30
2022-08-22T02:53:37.443Z,19.24
2022-08-22T02:56:26.983Z,19.22
2022-08-22T02:59:12.798Z,19.23
2022-08-22T03:01:43.887Z,19.29
2022-08-22T03:04:30.528Z,19.19
2022-08-22T03:06:58.757Z,19.29
2022-08-22T03:09:55.918Z,19.20
2022-08-22T03:12:45.354Z,19.20
2022-08-22T03:15:32.050Z,19.25
2022-08-22T03:18:32.307Z,18.85
2022-08-22T03:21:24.401Z,18.73
2022-08-22T03:23:57.757Z,18.56
2022-08-22T03:26:30.013Z,18.77
2022-08-22T03:29:21.572Z,18.83
2022-08-22T03:32:20.343Z,18.83
2022-08-22T03:35:31.200Z,18.53
2022-08-22T03:38:33.064Z,18.69
2022-08-22T03:41:13.539Z,18.76
2022-08-22T03:43:59.772Z,18.59
2022-08-22T03:46:50.892Z,18.69
2022-08-22T03:49:54.776Z,18.68
2022-08-22T03:53:15.334Z,18.67
2022-08-22T03:56:24.657Z,18.55
2022-08-22T03:59:14.277Z,18.69
2022-08-22T04:02:02.187Z,18.64
2022-08-22T04:05:24.740Z,18.62
2022-08-22T04:08:19.690Z,18.53
2022-08-22T04:11:02.464Z,18.73
2022-08-22T04:13:34.868Z,18.63
2022-08-22T04:16:13.340Z,18.51
2022-08-22T04:19:17.515Z,18.64
2022-08-22T04:22:42.959Z,18.78
2022-08-22T04:25:46.464Z,18.94
2022-08-22T04:28:20.601Z,18.78
2022-08-22T04:31:10.618Z,18.91
2022-08-22T04:34:07.439Z,18.96
2022-08-22T04:36:40.437Z,19.12
2022-08-22T04:42:47.539Z,19.19
2022-08-22T04:45:22.965Z,19.23
2022-08-22T04:48:01.813Z,19.26
2022-08-22T04:50:46.230Z,19.28
2022-08-22T04:53:45.054Z,19.22
2022-08-22T04:56:43.749Z,19.15
2022-08-22T04:59:13.387Z,19.17
2022-08-22T05:01:47.074Z,19.36
2022-08-22T05:04:28.459Z,19.37
2022-08-22T05:07:11.463Z,19.35
2022-08-22T05:09:45.950Z,19.12
2022-08-22T05:12:16.117Z,18.99
2022-08-22T05:14:59.880Z,19.26
2022-08-22T05:17:30.100Z,19.37
2022-08-22T05:20:00.848Z,19.38
2022-08-22T05:22:32.192Z,19.44
2022-08-22T05:25:03.141Z,19.41
2022-08-22T05:27:45.925Z,19.25
2022-08-22T05:30:22.134Z,19.49
2022-08-22T05:33:13.241Z,19.42
2022-08-22T05:35:47.251Z,19.51
2022-08-22T05:38:21.131Z,19.59
2022-08-22T05:41:01.262Z,19.51
2022-08-22T05:43:29.752Z,19.49
2022-08-22T05:45:58.730Z,19.69
2022-08-22T05:48:43.626Z,19.84
2022-08-22T05:51:21.933Z,19.78
2022-08-22T05:53:53.778Z,19.90
2022-08-22T05:56:27.892Z,19.87
2022-08-22T05:59:00.336Z,20.01
2022-08-22T06:01:38.557Z,20.04
2022-08-22T06:04:25.227Z,19.90
2022-08-22T06:07:15.558Z,19.93
2022-08-22T06:09:47.021Z,20.21
2022-08-22T06:12:35.576Z,19.87
2022-08-22T06:15:23.918Z,19.79
2022-08-22T06:18:05.474Z,20.01
2022-08-22T06:20:45.429Z,20.00
2022-08-22T06:23:29.036Z,20.33
2022-08-22T06:25:59.793Z,20.41
2022-08-22T06:28:33.142Z,20.24
2022-08-22T06:31:01.441Z,20.42
2022-08-22T06:33:31.166Z,20.23
2022-08-22T06:36:21.225Z,20.30
2022-08-22T06:38:53.944Z,20.49
2022-08-22T06:41:22.500Z,20.03
2022-08-22T06:43:51.117Z,20.30
2022-08-22T06:46:19.928Z,20.46
2022-08-22T06:48:48.330Z,20.48
2022-08-22T06:51:16.979Z,19.97
2022-08-22T06:53:51.032Z,20.67
2022-08-22T06:56:25.037Z,20.72
2022-08-22T06:58:55.078Z,20.21
2022-08-22T07:01:28.490Z,20.75
2022-08-22T07:04:04.370Z,20.87
2022-08-22T07:06:37.240Z,21.32
2022-08-22T07:09:06.775Z,21.03
2022-08-22T07:11:42.234Z,21.42
2022-08-22T07:14:12.893Z,21.39
2022-08-22T07:16:52.563Z,21.15
2022-08-22T07:19:37.262Z,21.27
2022-08-22T07:22:17.117Z,20.83
2022-08-22T07:24:51.884Z,21.17
2022-08-22T07:27:40.473Z,21.14
2022-08-22T07:30:10.952Z,20.57
2022-08-22T07:33:26.301Z,21.31
2022-08-22T07:36:00.008Z,21.23
2022-08-22T07:38:44.119Z,21.01
2022-08-22T07:41:24.547Z,21.17
2022-08-22T07:44:01.276Z,21.59
2022-08-22T07:46:36.166Z,21.43
2022-08-22T07:49:16.842Z,21.92
2022-08-22T07:51:56.755Z,21.70
2022-08-22T07:54:41.892Z,22.00
2022-08-22T07:57:22.878Z,22.51
2022-08-22T07:59:57.104Z,21.99
2022-08-22T08:02:26.756Z,22.06
2022-08-22T08:04:57.321Z,22.57
2022-08-22T08:07:26.979Z,22.43
2022-08-22T08:10:02.322Z,22.31
2022-08-22T08:12:38.424Z,21.94
2022-08-22T08:15:10.410Z,22.38
2022-08-22T08:17:38.891Z,22.40
2022-08-22T08:20:09.941Z,22.70
2022-08-22T08:22:39.194Z,22.65
2022-08-22T08:25:09.459Z,22.73
2022-08-22T08:27:57.262Z,22.75
2022-08-22T08:30:38.155Z,23.16
2022-08-22T08:33:25.179Z,23.69
2022-08-22T08:36:18.299Z,23.34
2022-08-22T08:39:04.450Z,23.69
2022-08-22T08:41:54.733Z,23.91
2022-08-22T08:44:41.527Z,22.96
2022-08-22T08:47:35.043Z,22.84
2022-08-22T08:50:44.826Z,23.51
2022-08-22T08:53:36.900Z,23.23
2022-08-22T08:56:47.187Z,23.61
2022-08-22T08:59:21.734Z,23.12
2022-08-22T09:02:09.603Z,23.02
2022-08-22T09:05:13.182Z,23.19
2022-08-22T09:08:17.254Z,23.26
2022-08-22T09:11:15.845Z,23.12
2022-08-22T09:13:51.246Z,23.44
2022-08-22T09:16:45.082Z,23.44
2022-08-22T09:19:41.590Z,23.44
2022-08-22T09:22:14.231Z,23.45
2022-08-22T09:24:54.821Z,23.51
2022-08-22T09:27:36.808Z,23.27
2022-08-22T09:30:11.517Z,23.45
2022-08-22T09:32:55.713Z,23.25
2022-08-22T09:35:42.645Z,23.00
2022-08-22T09:38:32.737Z,23.18
2022-08-22T09:41:14.499Z,23.03
2022-08-22T09:43:50.539Z,23.12
2022-08-22T09:46:36.772Z,22.43
2022-08-22T09:49:13.378Z,22.27
2022-08-22T09:52:14.384Z,22.39
2022-08-22T09:54:55.103Z,22.35
2022-08-22T09:57:39.971Z,22.43
2022-08-22T10:00:22.219Z,22.57
2022-08-22T10:03:11.698Z,22.75
2022-08-22T10:05:50.043Z,22.47
2022-08-22T10:08:39.992Z,22.53
2022-08-22T10:11:54.507Z,22.79
2022-08-22T10:15:02.896Z,22.82
2022-08-22T10:17:41.097Z,23.31
2022-08-22T10:20:25.244Z,22.76
2022-08-22T10:23:45.896Z,22.85
2022-08-22T10:26:23.041Z,22.62
2022-08-22T10:29:09.582Z,22.71
2022-08-22T10:31:59.028Z,22.98
2022-08-22T10:34:33.819Z,23.05
2022-08-22T10:37:27.589Z,22.51
2022-08-22T10:40:14.281Z,22.64
2022-08-22T10:42:53.789Z,22.75
2022-08-22T10:45:36.661Z,22.84
2022-08-22T10:48:07.995Z,22.98
2022-08-22T10:50:49.536Z,23.14
2022-08-22T10:53:31.479Z,23.69
2022-08-22T10:56:13.197Z,23.62
2022-08-22T10:58:52.914Z,23.15
2022-08-22T11:01:41.048Z,23.39
2022-08-22T11:04:33.289Z,23.64
2022-08-22T11:07:24.798Z,23.32
2022-08-22T11:09:56.358Z,23.40
2022-08-22T11:12:41.661Z,23.75
2022-08-22T11:15:28.209Z,23.64
2022-08-22T11:18:08.199Z,23.52
2022-08-22T11:21:02.396Z,23.15
2022-08-22T11:24:34.710Z,23.52
2022-08-22T11:27:38.179Z,24.07
2022-08-22T11:30:36.281Z,23.90
2022-08-22T11:33:21.540Z,24.26
2022-08-22T11:36:26.338Z,24.18
2022-08-22T11:38:58.925Z,24.40
2022-08-22T11:41:45.699Z,24.50
2022-08-22T11:44:28.080Z,24.55
2022-08-22T11:46:58.102Z,24.21
2022-08-22T11:49:49.344Z,23.95
2022-08-22T11:52:22.182Z,24.47
2022-08-22T11:55:09.415Z,24.65
2022-08-22T11:57:45.151Z,24.11
2022-08-22T12:00:28.729Z,24.54
2022-08-22T12:03:02.483Z,24.16
2022-08-22T12:05:34.363Z,24.64
2022-08-22T12:08:06.894Z,25.04
2022-08-22T12:10:37.689Z,25.10
2022-08-22T12:13:46.278Z,24.90
2022-08-22T12:16:35.079Z,24.82
2022-08-22T12:19:42.103Z,24.57
2022-08-22T12:23:01.829Z,24.95
2022-08-22T12:25:49.479Z,24.98
2022-08-22T12:28:24.013Z,24.53
2022-08-22T12:31:13.830Z,24.77
2022-08-22T12:34:09.646Z,24.93
2022-08-22T12:37:01.877Z,25.02
2022-08-22T12:40:09.590Z,25.05
2022-08-22T12:43:21.886Z,25.20
2022-08-22T12:46:13.075Z,25.06
2022-08-22T12:48:46.595Z,24.95
2022-08-22T12:51:26.017Z,25.07
2022-08-22T12:54:34.571Z,25.07
2022-08-22T12:57:25.166Z,25.13
2022-08-22T12:59:58.212Z,24.58
2022-08-22T13:02:32.643Z,24.03
2022-08-22T13:05:19.980Z,24.52
2022-08-22T13:07:57.185Z,24.13
2022-08-22T13:10:39.376Z,24.13
2022-08-22T13:13:12.115Z,24.20
2022-08-22T13:15:53.829Z,24.70
2022-08-22T13:18:29.679Z,24.65
2022-08-22T13:21:01.787Z,24.36
2022-08-22T13:23:39.634Z,24.59
2022-08-22T13:26:16.482Z,24.63
2022-08-22T13:29:27.041Z,24.43
2022-08-22T13:31:55.174Z,23.86
2022-08-22T13:34:38.419Z,24.09
2022-08-22T13:37:13.824Z,24.24
2022-08-22T13:39:45.835Z,24.40
2022-08-22T13:42:30.030Z,24.22
2022-08-22T13:45:03.001Z,24.33
2022-08-22T13:47:35.377Z,24.17
2022-08-22T13:50:17.296Z,24.12
2022-08-22T13:53:10.878Z,23.81
2022-08-22T13:55:49.078Z,23.15
2022-08-22T13:58:27.145Z,22.82
2022-08-22T14:00:58.512Z,22.82
2022-08-22T14:03:44.330Z,22.39
2022-08-22T14:06:38.087Z,22.87
2022-08-22T14:09:37.583Z,23.10
2022-08-22T14:12:12.543Z,23.08
2022-08-22T14:14:46.030Z,23.15
2022-08-22T14:17:27.057Z,23.03
2022-08-22T14:20:01.503Z,22.12
2022-08-22T14:22:35.615Z,21.62
2022-08-22T14:25:28.081Z,21.91
2022-08-22T14:28:06.245Z,22.26
2022-08-22T14:30:40.228Z,21.90
2022-08-22T14:33:23.832Z,22.41
2022-08-22T14:35:56.123Z,22.64
2022-08-22T14:38:37.372Z,22.55
2022-08-22T14:41:14.575Z,22.75
2022-08-22T14:44:02.401Z,22.38
2022-08-22T14:46:33.675Z,22.58
2022-08-22T14:49:02.842Z,22.78
2022-08-22T14:51:31.139Z,22.70
2022-08-22T14:54:21.477Z,22.83
2022-08-22T14:56:51.861Z,22.38
2022-08-22T14:59:50.346Z,21.84
2022-08-22T15:02:29.136Z,22.34
2022-08-22T15:04:58.673Z,22.49
2022-08-22T15:07:30.071Z,22.74
2022-08-22T15:10:20.795Z,22.75
2022-08-22T15:12:54.608Z,22.81
2022-08-22T15:15:52.978Z,22.49
2022-08-22T15:18:29.624Z,22.60
2022-08-22T15:21:11.248Z,22.22
2022-08-22T15:23:45.437Z,22.30
2022-08-22T15:26:28.112Z,22.44
2022-08-22T15:29:09.282Z,22.41
2022-08-22T15:31:41.469Z,21.59
2022-08-22T15:34:22.389Z,22.28
2022-08-22T15:37:17.557Z,22.35
2022-08-22T15:40:48.028Z,22.48
2022-08-22T15:43:28.846Z,22.50
2022-08-22T15:46:21.546Z,22.42
2022-08-22T15:49:02.901Z,22.60
2022-08-22T15:51:46.736Z,22.08
2022-08-22T15:54:31.541Z,22.70
2022-08-22T15:57:25.958Z,22.52
2022-08-22T16:00:23.167Z,22.66
2022-08-22T16:03:08.528Z,22.80
2022-08-22T16:05:38.216Z,22.85
2022-08-22T16:08:13.504Z,22.93
2022-08-22T16:10:54.117Z,22.90
2022-08-22T16:13:31.195Z,22.96
2022-08-22T16:16:25.956Z,23.04
2022-08-22T16:18:55.455Z,23.07
2022-08-22T16:21:24.087Z,22.95
2022-08-22T16:23:58.860Z,22.95
2022-08-22T16:26:30.499Z,23.04
2022-08-22T16:29:02.437Z,22.93
2022-08-22T16:31:56.634Z,22.76
2022-08-22T16:34:27.701Z,22.63
2022-08-22T16:37:21.831Z,22.79
2022-08-22T16:40:04.717Z,22.91
2022-08-22T16:42:47.457Z,22.89
2022-08-22T16:45:21.652Z,22.69
2022-08-22T16:47:56.769Z,22.80
2022-08-22T16:50:33.410Z,22.75
2022-08-22T16:53:11.442Z,22.76
2022-08-22T16:55:46.828Z,22.82
2022-08-22T16:59:09.869Z,22.61
2022-08-22T17:02:01.016Z,22.20
2022-08-22T17:04:48.687Z,22.21
2022-08-22T17:07:25.983Z,22.09
2022-08-22T17:10:12.239Z,22.01
2022-08-22T17:13:02.718Z,21.81
2022-08-22T17:16:00.879Z,21.70
2022-08-22T17:18:44.960Z,22.10
2022-08-22T17:21:26.039Z,22.19
2022-08-22T17:24:31.927Z,22.00
2022-08-22T17:27:33.881Z,21.96
2022-08-22T17:30:22.536Z,21.93
2022-08-22T17:33:58.493Z,22.01
2022-08-22T17:36:30.120Z,21.81
2022-08-22T17:39:24.672Z,21.86
2022-08-22T17:42:25.669Z,21.80
2022-08-22T17:45:02.274Z,21.39
2022-08-22T17:47:44.773Z,21.20
2022-08-22T17:50:35.054Z,21.14
2022-08-22T17:53:10.391Z,21.19
2022-08-22T17:55:57.619Z,21.11
2022-08-22T17:58:35.691Z,20.87
2022-08-22T18:01:32.512Z,20.83
2022-08-22T18:04:02.217Z,20.81
2022-08-22T18:06:34.069Z,20.76
2022-08-22T18:09:14.959Z,20.73
2022-08-22T18:12:04.018Z,20.88
2022-08-22T18:14:53.604Z,20.10
2022-08-22T18:17:45.501Z,20.62
2022-08-22T18:20:26.272Z,20.83
2022-08-22T18:22:57.920Z,21.06
2022-08-22T18:25:47.325Z,20.54
2022-08-22T18:28:32.791Z,20.06
2022-08-22T18:31:13.250Z,20.88
2022-08-22T18:33:49.130Z,20.40
2022-08-22T18:36:55.616Z,20.75
2022-08-22T18:39:59.781Z,21.11
2022-08-22T18:42:48.271Z,21.06
2022-08-22T18:45:20.658Z,21.24
2022-08-22T18:47:56.120Z,21.34
2022-08-22T18:50:48.003Z,21.29
2022-08-22T18:53:40.330Z,21.31
2022-08-22T18:56:41.033Z,21.21
2022-08-22T18:59:30.309Z,21.32
2022-08-22T19:02:27.482Z,21.22
2022-08-22T19:05:34.080Z,21.21
2022-08-22T19:08:32.116Z,21.22
2022-08-22T19:11:46.142Z,21.19
2022-08-22T19:14:27.777Z,21.18
2022-08-22T19:17:16.712Z,21.36
2022-08-22T19:20:19.556Z,21.42
2022-08-22T19:22:55.165Z,21.34
2022-08-22T19:25:47.011Z,21.35
2022-08-22T19:28:34.204Z,21.34
2022-08-22T19:34:39.669Z,21.09
2022-08-22T19:37:32.101Z,21.04
2022-08-22T19:40:10.070Z,20.96
2022-08-22T19:42:43.543Z,21.05
2022-08-22T19:45:24.922Z,21.11
2022-08-22T19:48:01.523Z,20.24
2022-08-22T19:50:40.787Z,20.28
2022-08-22T19:53:30.469Z,20.60
2022-08-22T19:56:23.438Z,20.69
2022-08-22T19:59:07.043Z,20.63
2022-08-22T20:01:56.445Z,20.69
2022-08-22T20:04:36.728Z,20.72
2022-08-22T20:07:16.974Z,20.62
2022-08-22T20:10:09.328Z,20.62
2022-08-22T20:13:05.313Z,20.64
2022-08-22T20:16:11.440Z,20.54
2022-08-22T20:19:07.070Z,20.41
2022-08-22T20:21:40.398Z,20.53
2022-08-22T20:24:21.475Z,20.51
2022-08-22T20:27:12.621Z,20.58
2022-08-22T20:29:45.985Z,20.49
2022-08-22T20:32:15.273Z,20.29
2022-08-22T20:34:45.326Z,20.33
2022-08-22T20:37:50.357Z,20.33
2022-08-22T20:40:33.491Z,20.34
2022-08-22T20:43:24.877Z,20.20
2022-08-22T20:46:12.429Z,20.25
2022-08-22T20:48:43.468Z,20.31
2022-08-22T20:51:15.873Z,20.38
2022-08-22T20:54:10.297Z,20.34
2022-08-22T20:56:53.882Z,20.17
2022-08-22T20:59:38.117Z,20.06
2022-08-22T21:02:18.318Z,20.22
2022-08-22T21:04:49.617Z,20.20
2022-08-22T21:07:23.157Z,20.14
2022-08-22T21:10:22.539Z,20.24
2022-08-22T21:13:25.570Z,20.17
2022-08-22T21:15:55.097Z,20.13
2022-08-22T21:18:33.971Z,20.30
2022-08-22T21:21:17.356Z,20.14
2022-08-22T21:23:50.709Z,20.03
2022-08-22T21:26:39.011Z,20.21
2022-08-22T21:29:15.242Z,19.93
2022-08-22T21:31:52.346Z,19.85
2022-08-22T21:34:37.148Z,19.75
2022-08-22T21:37:36.772Z,19.88
2022-08-22T21:40:35.149Z,20.03
2022-08-22T21:43:26.493Z,20.15
2022-08-22T21:45:55.256Z,20.23
2022-08-22T21:48:38.705Z,20.22
2022-08-22T21:51:44.654Z,20.15
2022-08-22T21:54:32.139Z,20.27
2022-08-22T21:57:15.491Z,20.24
2022-08-22T21:59:51.417Z,20.26
2022-08-22T22:02:37.445Z,20.23
2022-08-22T22:05:17.006Z,20.23
2022-08-22T22:07:46.546Z,20.15
2022-08-22T22:10:16.840Z,20.13
2022-08-22T22:12:46.316Z,20.28
2022-08-22T22:15:16.801Z,20.29
2022-08-22T22:17:45.273Z,20.23
2022-08-22T22:20:15.513Z,19.95
2022-08-22T22:22:46.424Z,19.87
2022-08-22T22:25:39.766Z,19.41
2022-08-22T22:28:07.668Z,19.87
2022-08-22T22:30:36.123Z,19.88
2022-08-22T22:33:04.525Z,20.06
2022-08-22T22:35:32.955Z,20.11
2022-08-22T22:38:01.685Z,20.12
2022-08-22T22:40:30.300Z,20.17
2022-08-22T22:42:58.688Z,20.17
2022-08-22T22:45:27.047Z,20.06
2022-08-22T22:47:55.407Z,20.06
2022-08-22T22:50:24.218Z,20.00
2022-08-22T22:52:53.032Z,19.74
2022-08-22T22:55:24.264Z,19.80
2022-08-22T22:57:59.290Z,19.96
2022-08-22T23:00:31.192Z,19.94
2022-08-22T23:03:01.110Z,19.80
2022-08-22T23:05:30.244Z,19.87
2022-08-22T23:07:59.060Z,19.81
2022-08-22T23:10:27.908Z,19.81
2022-08-22T23:12:56.414Z,19.64
2022-08-22T23:15:24.695Z,19.52
2022-08-22T23:17:53.092Z,19.78
2022-08-22T23:20:21.433Z,19.68
2022-08-22T23:22:49.757Z,19.77
2022-08-22T23:25:18.215Z,19.81
2022-08-22T23:27:48.723Z,19.90
2022-08-22T23:30:27.059Z,19.77
2022-08-22T23:32:55.939Z,19.49
2022-08-22T23:35:24.327Z,19.56
2022-08-22T23:37:53.026Z,19.64
2022-08-22T23:40:21.436Z,19.72
2022-08-22T23:42:49.885Z,19.73
2022-08-22T23:45:18.275Z,19.67
2022-08-22T23:47:46.693Z,19.71
2022-08-22T23:50:14.983Z,19.52
2022-08-22T23:52:43.302Z,19.41
2022-08-22T23:55:11.695Z,19.46
2022-08-22T23:57:40.023Z,19.45
